Historical Weather Data

Kanab, UT VWS

Date ET
(Inches)
Rain
(Inches)
Temp °F
Humidity
Avg
Wind MPH
Avg
Solar Wm2
Avg
High Ave Low
12/01/2018 12:00 am 0.035 0.06 46.0 34.3 27.5 72 3.3 67
12/02/2018 12:00 am 0.036 0.05 39.0 30.0 23.0 76 4.1 107
12/03/2018 12:00 am 0.040 0.00 38.0 26.2 19.0 61 1.6 133
12/04/2018 12:00 am 0.045 0.00 37.0 26.3 18.0 53 3.6 123
12/05/2018 12:00 am 0.039 0.00 41.0 30.5 23.0 55 3.3 83
12/06/2018 12:00 am 0.026 0.01 37.0 31.9 28.0 67 2.3 46
12/07/2018 12:00 am 0.037 0.02 41.0 33.8 29.0 79 2.4 108
12/08/2018 12:00 am 0.041 0.00 46.0 34.4 27.0 73 1.6 126
12/09/2018 12:00 am 0.045 0.00 44.0 32.8 25.0 66 2.8 120
12/10/2018 12:00 am 0.048 0.00 46.0 35.4 28.0 60 4.6 82
12/11/2018 12:00 am 0.058 0.00 52.0 38.5 30.0 55 3.1 125
12/12/2018 12:00 am 0.073 0.00 50.0 36.0 25.0 52 5.9 127
12/13/2018 12:00 am 0.057 0.00 46.0 31.7 21.0 38 3.0 134
12/14/2018 12:00 am 0.059 0.00 47.0 34.4 25.0 42 3.9 115
12/15/2018 12:00 am 0.060 0.00 52.0 39.3 31.7 43 2.8 127
12/16/2018 12:00 am 0.067 0.00 53.0 38.1 28.0 46 4.4 127
12/17/2018 12:00 am 0.042 0.00 50.0 38.9 30.7 49 2.6 75
12/18/2018 12:00 am 0.053 0.00 51.0 38.1 30.0 54 2.0 129
12/19/2018 12:00 am 0.052 0.00 56.0 39.4 28.0 54 2.0 129
12/20/2018 12:00 am 0.047 0.00 57.0 39.5 28.0 49 1.6 118
12/21/2018 12:00 am 0.051 0.00 56.0 41.8 33.0 43 1.7 111
12/22/2018 12:00 am 0.048 0.00 52.0 39.4 32.0 45 1.3 126
12/23/2018 12:00 am 0.048 0.00 52.0 38.9 30.0 39 1.5 127
12/24/2018 12:00 am 0.043 0.00 54.0 40.3 30.0 46 1.5 96
12/25/2018 12:00 am 0.023 0.05 44.0 36.7 31.0 66 1.7 36
12/26/2018 12:00 am 0.052 0.00 44.0 33.3 27.0 59 3.3 117
12/27/2018 12:00 am 0.033 0.00 38.0 28.7 22.0 53 2.7 67
12/28/2018 12:00 am 0.040 0.01 34.0 25.7 20.0 57 2.8 127
12/29/2018 12:00 am 0.036 0.00 35.0 23.7 15.0 51 2.0 130
12/30/2018 12:00 am 0.041 0.00 42.0 29.3 19.0 56 2.1 115
12/31/2018 12:00 am 0.036 0.00 31.0 25.4 18.0 61 3.3 110